createdAt,value
2022-10-30T00:00:11.874Z,57.00
2022-10-30T00:03:05.758Z,61.20
2022-10-30T00:05:41.613Z,60.50
2022-10-30T00:08:15.674Z,60.40
2022-10-30T00:10:50.508Z,74.60
2022-10-30T00:13:23.361Z,67.40
2022-10-30T00:15:57.411Z,66.20
2022-10-30T00:18:30.505Z,62.40
2022-10-30T00:21:07.827Z,67.60
2022-10-30T00:23:41.016Z,62.10
2022-10-30T00:26:15.241Z,61.00
2022-10-30T00:28:50.732Z,62.20
2022-10-30T00:31:25.882Z,59.70
2022-10-30T00:33:59.038Z,55.60
2022-10-30T00:36:33.331Z,55.00
2022-10-30T00:39:06.527Z,52.50
2022-10-30T00:41:41.848Z,51.60
2022-10-30T00:44:40.505Z,51.00
2022-10-30T00:47:18.136Z,51.40
2022-10-30T00:49:55.392Z,52.70
2022-10-30T00:52:29.658Z,52.80
2022-10-30T00:55:04.131Z,55.10
2022-10-30T00:57:36.911Z,54.60
2022-10-30T01:00:14.083Z,51.50
2022-10-30T01:02:47.781Z,51.10
2022-10-30T01:05:21.868Z,52.10
2022-10-30T01:07:53.993Z,52.30
2022-10-30T01:10:28.044Z,48.50
2022-10-30T01:13:05.933Z,49.10
2022-10-30T01:15:41.855Z,48.90
2022-10-30T01:18:24.386Z,53.70
2022-10-30T01:21:16.552Z,53.90
2022-10-30T01:24:02.365Z,55.90
2022-10-30T01:26:43.490Z,64.00
2022-10-30T01:29:28.254Z,72.00
2022-10-30T01:32:15.010Z,65.70
2022-10-30T01:34:51.613Z,67.60
2022-10-30T01:37:29.996Z,68.60
2022-10-30T01:40:07.952Z,57.40
2022-10-30T01:42:56.798Z,52.40
2022-10-30T01:45:46.990Z,59.50
2022-10-30T01:48:34.496Z,56.60
2022-10-30T01:51:13.214Z,56.50
2022-10-30T01:53:54.324Z,55.40
2022-10-30T01:56:33.609Z,54.50
2022-10-30T01:59:13.423Z,53.20
2022-10-30T02:01:48.088Z,51.90
2022-10-30T02:04:20.710Z,52.90
2022-10-30T02:06:53.757Z,50.00
2022-10-30T02:09:26.702Z,51.20
2022-10-30T02:12:01.215Z,52.80
2022-10-30T02:14:36.113Z,54.50
2022-10-30T02:17:10.073Z,58.40
2022-10-30T02:19:42.886Z,95.30
2022-10-30T02:22:16.886Z,108.10
2022-10-30T02:24:50.414Z,139.00
2022-10-30T02:27:26.955Z,164.10
2022-10-30T02:30:01.448Z,171.60
2022-10-30T02:32:35.880Z,181.50
2022-10-30T02:35:11.266Z,173.50
2022-10-30T02:37:43.190Z,177.40
2022-10-30T02:40:17.295Z,187.40
2022-10-30T02:42:55.004Z,180.90
2022-10-30T02:45:27.444Z,174.30
2022-10-30T02:48:06.133Z,188.60
2022-10-30T02:50:40.841Z,185.50
2022-10-30T02:53:12.654Z,169.60
2022-10-30T02:55:45.375Z,163.40
2022-10-30T02:58:19.887Z,151.90
2022-10-30T03:00:51.791Z,142.90
2022-10-30T03:03:24.266Z,140.00
2022-10-30T03:05:57.279Z,132.20
2022-10-30T03:08:30.383Z,131.40
2022-10-30T03:11:07.785Z,128.40
2022-10-30T03:13:42.754Z,130.90
2022-10-30T03:16:16.864Z,127.00
2022-10-30T03:18:52.116Z,123.00
2022-10-30T03:21:26.247Z,114.60
2022-10-30T03:23:59.350Z,123.40
2022-10-30T03:26:33.303Z,110.10
2022-10-30T03:29:05.529Z,109.50
2022-10-30T03:31:38.465Z,106.20
2022-10-30T03:34:12.603Z,104.00
2022-10-30T03:36:45.406Z,102.50
2022-10-30T03:39:18.631Z,101.70
2022-10-30T03:41:53.790Z,99.80
2022-10-30T03:44:27.564Z,98.80
2022-10-30T03:47:00.422Z,99.80
2022-10-30T03:49:34.060Z,101.00
2022-10-30T03:52:07.462Z,103.40
2022-10-30T03:54:41.986Z,102.30
2022-10-30T03:57:14.661Z,99.30
2022-10-30T03:59:48.069Z,107.70
2022-10-30T04:04:59.540Z,99.50
2022-10-30T04:07:34.059Z,90.10
2022-10-30T04:10:09.981Z,90.90
2022-10-30T04:12:44.145Z,78.70
2022-10-30T04:15:16.472Z,78.30
2022-10-30T04:17:53.119Z,71.60
2022-10-30T04:20:29.077Z,73.60
2022-10-30T04:23:02.935Z,73.70
2022-10-30T04:25:37.753Z,71.30
2022-10-30T04:28:10.001Z,70.30
2022-10-30T04:30:44.703Z,66.50
2022-10-30T04:33:17.712Z,69.10
2022-10-30T04:35:50.265Z,66.40
2022-10-30T04:38:23.035Z,77.30
2022-10-30T04:40:56.000Z,73.00
2022-10-30T04:43:29.234Z,71.80
2022-10-30T04:46:05.470Z,72.10
2022-10-30T04:48:37.725Z,73.90
2022-10-30T04:51:11.887Z,70.60
2022-10-30T04:53:48.542Z,71.20
2022-10-30T04:56:21.762Z,68.60
2022-10-30T04:58:57.999Z,71.00
2022-10-30T05:01:34.014Z,69.80
2022-10-30T05:04:09.936Z,71.10
2022-10-30T05:06:42.392Z,72.50
2022-10-30T05:09:16.169Z,66.70
2022-10-30T05:11:57.443Z,70.70
2022-10-30T05:14:34.998Z,69.30
2022-10-30T05:17:07.441Z,71.70
2022-10-30T05:19:41.219Z,71.00
2022-10-30T05:22:15.053Z,67.30
2022-10-30T05:24:48.336Z,71.60
2022-10-30T05:27:20.347Z,71.20
2022-10-30T05:29:53.123Z,76.60
2022-10-30T05:32:25.649Z,83.10
2022-10-30T05:35:01.107Z,79.60
2022-10-30T05:37:34.467Z,80.40
2022-10-30T05:40:09.258Z,83.20
2022-10-30T05:42:41.159Z,84.00
2022-10-30T05:45:15.499Z,97.00
2022-10-30T05:47:50.551Z,88.50
2022-10-30T05:50:22.788Z,95.10
2022-10-30T05:52:59.749Z,97.60
2022-10-30T05:55:33.404Z,101.00
2022-10-30T05:58:08.945Z,99.50
2022-10-30T06:00:43.077Z,81.90
2022-10-30T06:03:17.064Z,77.70
2022-10-30T06:05:52.029Z,73.80
2022-10-30T06:08:23.804Z,75.50
2022-10-30T06:10:58.697Z,71.50
2022-10-30T06:13:33.124Z,76.80
2022-10-30T06:16:08.818Z,73.50
2022-10-30T06:18:40.596Z,72.20
2022-10-30T06:21:13.685Z,71.10
2022-10-30T06:23:51.810Z,73.30
2022-10-30T06:26:26.243Z,68.40
2022-10-30T06:29:01.405Z,69.20
2022-10-30T06:31:35.089Z,79.10
2022-10-30T06:34:07.722Z,79.90
2022-10-30T06:36:41.005Z,76.90
2022-10-30T06:39:13.215Z,70.10
2022-10-30T06:41:46.852Z,89.60
2022-10-30T06:44:20.827Z,75.20
2022-10-30T06:46:57.491Z,72.40
2022-10-30T06:49:32.064Z,72.80
2022-10-30T06:52:05.759Z,72.20
2022-10-30T06:54:39.430Z,71.40
2022-10-30T06:57:17.738Z,70.10
2022-10-30T06:59:49.693Z,68.90
2022-10-30T07:02:25.855Z,71.20
2022-10-30T07:04:58.474Z,73.10
2022-10-30T07:07:31.317Z,72.90
2022-10-30T07:10:06.314Z,72.50
2022-10-30T07:12:38.759Z,68.50
2022-10-30T07:15:14.745Z,69.90
2022-10-30T07:17:55.978Z,69.90
2022-10-30T07:20:29.843Z,69.10
2022-10-30T07:23:07.658Z,65.00
2022-10-30T07:25:40.214Z,73.60
2022-10-30T07:28:12.127Z,62.90
2022-10-30T07:30:44.889Z,64.00
2022-10-30T07:33:19.736Z,66.00
2022-10-30T07:35:56.547Z,67.10
2022-10-30T07:38:30.211Z,75.70
2022-10-30T07:41:03.921Z,72.90
2022-10-30T07:43:38.012Z,69.80
2022-10-30T07:46:09.895Z,68.90
2022-10-30T07:48:47.532Z,66.00
2022-10-30T07:51:21.426Z,64.30
2022-10-30T07:53:56.036Z,64.10
2022-10-30T07:56:56.305Z,64.20
2022-10-30T07:59:30.910Z,57.10
2022-10-30T08:02:39.104Z,56.80
2022-10-30T08:05:48.282Z,56.20
2022-10-30T08:08:47.334Z,60.90
2022-10-30T08:11:32.133Z,54.20
2022-10-30T08:14:37.537Z,56.60
2022-10-30T08:17:17.509Z,53.50
2022-10-30T08:19:58.344Z,50.00
2022-10-30T08:22:59.640Z,51.30
2022-10-30T08:25:36.719Z,57.50
2022-10-30T08:28:11.937Z,51.30
2022-10-30T08:38:06.213Z,49.70
2022-10-30T08:40:40.932Z,58.60
2022-10-30T08:43:15.042Z,54.00
2022-10-30T08:45:47.975Z,54.50
2022-10-30T08:48:21.216Z,52.40
2022-10-30T08:50:57.050Z,52.70
2022-10-30T08:53:29.969Z,51.80
2022-10-30T08:56:05.884Z,57.10
2022-10-30T08:58:39.586Z,51.20
2022-10-30T09:01:14.474Z,52.40
2022-10-30T09:03:48.571Z,50.10
2022-10-30T09:06:21.925Z,52.10
2022-10-30T09:08:54.357Z,49.50
2022-10-30T09:11:27.388Z,52.00
2022-10-30T09:14:02.510Z,47.50
2022-10-30T09:16:37.285Z,46.70
2022-10-30T09:19:09.141Z,44.30
2022-10-30T09:21:42.974Z,47.80
2022-10-30T09:24:16.825Z,43.70
2022-10-30T09:26:53.537Z,43.60
2022-10-30T09:29:56.557Z,45.30
2022-10-30T09:33:22.425Z,42.40
2022-10-30T09:36:23.729Z,42.10
2022-10-30T09:39:01.088Z,40.70
2022-10-30T09:42:47.503Z,42.90
2022-10-30T09:45:30.914Z,37.00
2022-10-30T09:48:20.731Z,37.00
2022-10-30T09:50:59.497Z,36.80
2022-10-30T09:53:35.369Z,34.80
2022-10-30T09:56:11.552Z,36.70
2022-10-30T09:58:49.712Z,33.30
2022-10-30T10:01:27.666Z,35.40
2022-10-30T10:04:07.213Z,35.60
2022-10-30T10:06:45.345Z,32.60
2022-10-30T10:09:23.734Z,34.70
2022-10-30T10:11:59.520Z,32.90
2022-10-30T10:14:34.175Z,31.90
2022-10-30T10:17:11.821Z,31.70
2022-10-30T10:19:55.490Z,32.20
2022-10-30T10:22:39.083Z,32.20
2022-10-30T10:25:16.030Z,30.70
2022-10-30T10:27:57.762Z,28.30
2022-10-30T10:30:35.593Z,25.00
2022-10-30T10:33:30.147Z,24.90
2022-10-30T10:36:11.512Z,24.60
2022-10-30T10:39:07.645Z,24.70
2022-10-30T10:41:55.928Z,26.60
2022-10-30T10:44:36.659Z,23.60
2022-10-30T10:47:32.438Z,20.50
2022-10-30T10:50:18.699Z,23.00
2022-10-30T10:52:54.926Z,20.20
2022-10-30T10:55:30.458Z,15.20
2022-10-30T10:58:11.689Z,16.20
2022-10-30T11:00:45.663Z,18.90
2022-10-30T11:03:26.292Z,15.90
2022-10-30T11:06:00.992Z,16.30
2022-10-30T11:08:35.470Z,14.90
2022-10-30T11:11:10.859Z,19.70
2022-10-30T11:13:46.869Z,16.00
2022-10-30T11:16:26.865Z,15.50
2022-10-30T11:19:01.587Z,14.50
2022-10-30T11:21:36.532Z,14.30
2022-10-30T11:24:29.466Z,14.00
2022-10-30T11:27:26.042Z,20.10
2022-10-30T11:30:05.773Z,14.60
2022-10-30T11:32:39.891Z,16.90
2022-10-30T11:35:18.917Z,17.00
2022-10-30T11:37:52.810Z,16.20
2022-10-30T11:40:27.008Z,15.00
2022-10-30T11:43:01.575Z,19.10
2022-10-30T11:45:43.290Z,15.10
2022-10-30T11:48:24.332Z,17.50
2022-10-30T11:51:01.591Z,15.10
2022-10-30T11:53:40.110Z,18.90
2022-10-30T11:56:18.334Z,16.00
2022-10-30T11:58:53.309Z,15.60
2022-10-30T12:01:28.558Z,19.20
2022-10-30T12:04:17.452Z,26.90
2022-10-30T12:06:54.965Z,16.50
2022-10-30T12:09:31.120Z,13.30
2022-10-30T12:12:06.757Z,15.40
2022-10-30T12:14:39.508Z,14.70
2022-10-30T12:17:11.537Z,15.50
2022-10-30T12:19:50.405Z,16.30
2022-10-30T12:22:31.922Z,15.30
2022-10-30T12:25:07.997Z,14.90
2022-10-30T12:27:40.759Z,18.40
2022-10-30T12:30:20.443Z,17.60
2022-10-30T12:32:57.571Z,22.20
2022-10-30T12:35:41.156Z,14.70
2022-10-30T12:38:18.425Z,14.50
2022-10-30T12:41:02.027Z,30.60
2022-10-30T12:43:36.602Z,18.00
2022-10-30T12:46:23.812Z,16.10
2022-10-30T12:48:59.812Z,13.40
2022-10-30T12:51:36.742Z,17.20
2022-10-30T12:54:17.259Z,23.30
2022-10-30T12:56:57.077Z,13.60
2022-10-30T12:59:42.673Z,11.80
2022-10-30T13:02:20.006Z,22.50
2022-10-30T13:04:57.959Z,23.30
2022-10-30T13:07:35.121Z,12.40
2022-10-30T13:10:18.220Z,10.30
2022-10-30T13:12:58.020Z,25.60
2022-10-30T13:15:34.979Z,12.10
2022-10-30T13:18:19.530Z,14.00
2022-10-30T13:21:03.869Z,11.00
2022-10-30T13:23:44.485Z,11.90
2022-10-30T13:26:23.149Z,12.20
2022-10-30T13:29:00.636Z,12.30
2022-10-30T13:31:38.985Z,12.20
2022-10-30T13:34:27.942Z,12.60
2022-10-30T13:37:07.119Z,11.50
2022-10-30T13:39:43.329Z,11.30
2022-10-30T13:42:26.839Z,14.30
2022-10-30T13:45:06.307Z,8.70
2022-10-30T13:47:50.444Z,15.50
2022-10-30T13:50:33.688Z,12.20
2022-10-30T13:53:08.582Z,16.10
2022-10-30T13:55:43.336Z,13.60
2022-10-30T13:58:24.728Z,12.60
2022-10-30T14:01:04.758Z,15.60
2022-10-30T14:03:50.117Z,26.20
2022-10-30T14:06:30.300Z,15.90
2022-10-30T14:09:12.176Z,20.80
2022-10-30T14:11:44.237Z,22.00
2022-10-30T14:14:33.185Z,25.90
2022-10-30T14:17:13.998Z,16.60
2022-10-30T14:20:20.617Z,16.10
2022-10-30T14:23:16.192Z,14.30
2022-10-30T14:25:49.092Z,18.70
2022-10-30T14:28:26.043Z,21.20
2022-10-30T14:31:07.320Z,20.10
2022-10-30T14:33:50.854Z,15.90
2022-10-30T14:36:25.151Z,21.00
2022-10-30T14:39:24.658Z,21.00
2022-10-30T14:42:04.052Z,19.50
2022-10-30T14:45:02.663Z,22.20
2022-10-30T14:47:53.300Z,17.40
2022-10-30T14:50:48.560Z,20.00
2022-10-30T14:53:31.621Z,18.20
2022-10-30T14:56:10.668Z,19.60
2022-10-30T14:58:47.656Z,18.90
2022-10-30T15:01:37.911Z,17.50
2022-10-30T15:04:22.749Z,20.70
2022-10-30T15:06:59.462Z,22.20
2022-10-30T15:09:45.354Z,20.60
2022-10-30T15:12:36.666Z,40.30
2022-10-30T15:15:16.536Z,18.50
2022-10-30T15:17:50.657Z,20.90
2022-10-30T15:20:24.839Z,23.70
2022-10-30T15:23:01.239Z,19.80
2022-10-30T15:25:37.049Z,24.70
2022-10-30T15:28:14.456Z,33.80
2022-10-30T15:31:03.692Z,36.00
2022-10-30T15:33:39.504Z,27.00
2022-10-30T15:36:20.614Z,24.90
2022-10-30T15:39:12.728Z,25.60
2022-10-30T15:41:55.760Z,23.70
2022-10-30T15:44:31.241Z,23.60
2022-10-30T15:47:05.485Z,197.10
2022-10-30T15:49:39.201Z,38.10
2022-10-30T15:52:19.178Z,33.90
2022-10-30T15:54:55.563Z,27.30
2022-10-30T15:58:01.142Z,26.40
2022-10-30T16:00:25.441Z,26.40
2022-10-30T16:03:07.174Z,23.80
2022-10-30T16:05:38.991Z,20.30
2022-10-30T16:08:17.604Z,20.00
2022-10-30T16:10:51.027Z,18.60
2022-10-30T16:13:26.675Z,16.80
2022-10-30T16:15:59.759Z,19.70
2022-10-30T16:18:37.186Z,19.30
2022-10-30T16:21:14.130Z,42.50
2022-10-30T16:23:51.432Z,24.80
2022-10-30T16:26:33.744Z,20.20
2022-10-30T16:29:17.107Z,24.90
2022-10-30T16:31:52.262Z,29.30
2022-10-30T16:34:32.339Z,20.00
2022-10-30T16:37:05.114Z,21.70
2022-10-30T16:39:38.430Z,24.60
2022-10-30T16:42:22.314Z,52.40
2022-10-30T16:44:59.351Z,31.90
2022-10-30T16:47:35.121Z,37.40
2022-10-30T16:50:12.016Z,28.30
2022-10-30T16:52:46.891Z,29.40
2022-10-30T16:55:23.182Z,28.00
2022-10-30T16:57:58.351Z,23.10
2022-10-30T17:00:36.865Z,23.90
2022-10-30T17:03:12.596Z,32.20
2022-10-30T17:05:47.545Z,34.70
2022-10-30T17:08:36.903Z,34.00
2022-10-30T17:11:17.334Z,30.10
2022-10-30T17:14:04.772Z,49.10
2022-10-30T17:16:38.685Z,34.70
2022-10-30T17:19:48.469Z,33.20
2022-10-30T17:22:23.225Z,38.80
2022-10-30T17:24:57.881Z,40.70
2022-10-30T17:27:46.580Z,51.60
2022-10-30T17:30:39.093Z,38.00
2022-10-30T17:33:33.317Z,39.50
2022-10-30T17:36:09.875Z,34.00
2022-10-30T17:38:42.120Z,34.20
2022-10-30T17:41:16.891Z,42.10
2022-10-30T17:43:53.141Z,26.40
2022-10-30T17:46:26.637Z,30.60
2022-10-30T17:49:05.532Z,41.10
2022-10-30T17:51:40.861Z,31.00
2022-10-30T17:54:17.958Z,31.90
2022-10-30T17:56:52.626Z,36.80
2022-10-30T17:59:27.830Z,35.30
2022-10-30T18:02:02.217Z,39.20
2022-10-30T18:04:35.031Z,35.60
2022-10-30T18:07:08.430Z,40.70
2022-10-30T18:09:41.036Z,34.40
2022-10-30T18:12:16.722Z,32.90
2022-10-30T18:14:48.942Z,33.90
2022-10-30T18:17:22.931Z,31.70
2022-10-30T18:19:55.333Z,33.40
2022-10-30T18:22:28.498Z,36.00
2022-10-30T18:25:02.448Z,35.50
2022-10-30T18:27:35.192Z,32.60
2022-10-30T18:30:10.102Z,28.10
2022-10-30T18:32:42.953Z,35.20
2022-10-30T18:35:27.190Z,56.60
2022-10-30T18:38:02.564Z,69.00
2022-10-30T18:40:35.770Z,66.70
2022-10-30T18:43:12.781Z,50.60
2022-10-30T18:45:44.863Z,53.50
2022-10-30T18:48:20.316Z,50.30
2022-10-30T18:50:53.983Z,46.50
2022-10-30T18:53:34.997Z,48.10
2022-10-30T18:56:12.793Z,65.30
2022-10-30T18:58:44.733Z,58.20
2022-10-30T19:01:19.044Z,62.50
2022-10-30T19:03:51.741Z,56.50
2022-10-30T19:06:26.946Z,48.40
2022-10-30T19:09:01.201Z,47.30
2022-10-30T19:11:33.263Z,44.40
2022-10-30T19:14:06.930Z,51.50
2022-10-30T19:16:39.497Z,47.00
2022-10-30T19:19:15.241Z,44.60
2022-10-30T19:21:50.151Z,45.40
2022-10-30T19:24:23.319Z,45.20
2022-10-30T19:26:57.886Z,50.20
2022-10-30T19:29:31.621Z,47.90
2022-10-30T19:32:04.334Z,49.80
2022-10-30T19:34:45.998Z,61.70
2022-10-30T19:37:19.746Z,74.20
2022-10-30T19:39:51.975Z,126.40
2022-10-30T19:42:24.201Z,112.90
2022-10-30T19:44:56.717Z,73.30
2022-10-30T19:47:30.000Z,72.40
2022-10-30T19:50:02.390Z,72.30
2022-10-30T19:52:35.041Z,85.40
2022-10-30T19:55:09.777Z,107.30
2022-10-30T19:57:42.372Z,82.30
2022-10-30T20:00:19.969Z,71.80
2022-10-30T20:02:53.486Z,61.10
2022-10-30T20:05:28.613Z,66.80
2022-10-30T20:08:03.847Z,68.50
2022-10-30T20:10:39.070Z,57.80
2022-10-30T20:13:15.776Z,69.40
2022-10-30T20:15:47.835Z,67.00
2022-10-30T20:18:30.530Z,55.80
2022-10-30T20:21:07.472Z,58.60
2022-10-30T20:23:42.435Z,50.40
2022-10-30T20:26:23.649Z,55.40
2022-10-30T20:28:56.831Z,50.60
2022-10-30T20:31:29.501Z,50.50
2022-10-30T20:34:03.897Z,51.90
2022-10-30T20:36:40.810Z,50.20
2022-10-30T20:39:14.508Z,50.10
2022-10-30T20:41:47.257Z,62.80
2022-10-30T20:44:19.673Z,63.40
2022-10-30T20:46:55.352Z,66.40
2022-10-30T20:49:28.558Z,51.10
2022-10-30T20:52:02.720Z,48.80
2022-10-30T20:54:35.888Z,54.90
2022-10-30T20:57:09.924Z,56.20
2022-10-30T20:59:44.240Z,52.00
2022-10-30T21:02:19.739Z,53.30
2022-10-30T21:04:52.292Z,54.80
2022-10-30T21:07:26.889Z,54.60
2022-10-30T21:09:58.693Z,49.90
2022-10-30T21:12:35.422Z,55.90
2022-10-30T21:15:09.747Z,52.00
2022-10-30T21:17:42.765Z,52.60
2022-10-30T21:20:15.617Z,51.40
2022-10-30T21:22:48.345Z,51.80
2022-10-30T21:25:21.508Z,54.80
2022-10-30T21:27:53.335Z,54.30
2022-10-30T21:30:27.733Z,53.20
2022-10-30T21:33:04.211Z,50.90
2022-10-30T21:35:37.649Z,52.30
2022-10-30T21:38:11.489Z,47.20
2022-10-30T21:40:48.656Z,48.50
2022-10-30T21:43:23.247Z,46.50
2022-10-30T21:45:57.714Z,49.70
2022-10-30T21:48:30.350Z,47.80
2022-10-30T21:51:10.901Z,46.00
2022-10-30T21:53:46.912Z,45.90
2022-10-30T21:56:21.471Z,54.50
2022-10-30T21:58:59.656Z,64.00
2022-10-30T22:01:34.993Z,105.90
2022-10-30T22:04:20.094Z,160.70
2022-10-30T22:06:56.517Z,148.90
2022-10-30T22:09:31.241Z,151.00
2022-10-30T22:12:05.121Z,64.60
2022-10-30T22:14:38.741Z,57.00
2022-10-30T22:17:11.117Z,48.70
2022-10-30T22:19:46.361Z,49.10
2022-10-30T22:22:21.685Z,48.70
2022-10-30T22:24:54.455Z,45.40
2022-10-30T22:27:26.861Z,51.10
2022-10-30T22:30:01.050Z,51.60
2022-10-30T22:32:33.581Z,51.80
2022-10-30T22:35:11.279Z,47.50
2022-10-30T22:37:43.799Z,60.50
2022-10-30T22:40:18.222Z,51.50
2022-10-30T22:42:50.817Z,48.40
2022-10-30T22:45:25.242Z,66.70
2022-10-30T22:47:58.582Z,54.40
2022-10-30T22:50:30.983Z,54.60
2022-10-30T22:53:05.157Z,64.40
2022-10-30T22:55:38.692Z,507.90
2022-10-30T22:58:11.111Z,387.60
2022-10-30T23:00:48.785Z,446.30
2022-10-30T23:03:20.730Z,294.70
2022-10-30T23:05:59.750Z,418.30
2022-10-30T23:08:33.925Z,217.10
2022-10-30T23:11:09.719Z,153.40
2022-10-30T23:13:45.502Z,138.00
2022-10-30T23:16:18.868Z,191.20
2022-10-30T23:18:53.144Z,206.30
2022-10-30T23:21:27.196Z,81.50
2022-10-30T23:24:02.970Z,82.10
2022-10-30T23:26:37.936Z,85.70
2022-10-30T23:29:10.684Z,66.50
2022-10-30T23:31:46.382Z,70.20
2022-10-30T23:34:19.585Z,68.20
2022-10-30T23:36:56.375Z,60.30
2022-10-30T23:39:34.918Z,71.20
2022-10-30T23:42:09.362Z,74.10
2022-10-30T23:44:42.078Z,67.60
2022-10-30T23:47:14.050Z,65.80
2022-10-30T23:49:48.119Z,79.10
2022-10-30T23:52:22.589Z,56.10
2022-10-30T23:54:57.924Z,51.40
2022-10-30T23:57:33.263Z,53.40
